Time;durP1;ratioP1;P1;durP2;ratioP2;P2;SDS_P1;SDS_P2;PMS_P1;PMS_P2;Temp;Humidity;BMP_temperature;BMP_pressure;BME280_temperature;BME280_humidity;BME280_pressure;Samples;Min_cycle;Max_cycle;Signal;HPM_P1;HPM_P2
2021/12/01 00:00:27;;;;;;;31.77;15.15;;;;;;;-0.03;100.00;99605.41;6125010;23;20041;-81
2021/12/01 00:02:54;;;;;;;26.55;15.88;;;;;;;-0.03;100.00;99607.16;6124906;23;20082;-81
2021/12/01 00:05:23;;;;;;;26.08;14.65;;;;;;;-0.03;100.00;99604.56;6122727;23;20013;-81
2021/12/01 00:07:49;;;;;;;28.00;15.25;;;;;;;-0.02;100.00;99593.28;6124200;23;20371;-80
2021/12/01 00:10:16;;;;;;;24.08;15.32;;;;;;;0.03;100.00;99591.31;6124396;23;20052;-81
2021/12/01 00:12:43;;;;;;;25.48;14.77;;;;;;;0.11;100.00;99589.19;6125414;23;20020;-81
2021/12/01 00:15:10;;;;;;;27.23;14.65;;;;;;;0.17;100.00;99583.69;6124924;23;20109;-81
2021/12/01 00:17:35;;;;;;;28.15;14.35;;;;;;;0.18;100.00;99585.34;6123257;23;20300;-81
2021/12/01 00:20:01;;;;;;;25.38;15.45;;;;;;;0.15;100.00;99595.03;6125110;23;20017;-81
2021/12/01 00:22:27;;;;;;;24.67;15.23;;;;;;;0.10;100.00;99587.50;6124611;23;20010;-81
2021/12/01 00:24:56;;;;;;;26.95;16.13;;;;;;;0.05;100.00;99594.66;6124874;23;20025;-81
2021/12/01 00:27:22;;;;;;;27.10;15.60;;;;;;;0.00;100.00;99591.47;6123556;23;20443;-81
2021/12/01 00:29:49;;;;;;;24.42;15.70;;;;;;;-0.06;100.00;99582.19;6124416;23;20014;-81
2021/12/01 00:32:15;;;;;;;24.73;15.45;;;;;;;-0.11;100.00;99578.16;6128438;23;20010;-80
2021/12/01 00:34:41;;;;;;;31.48;15.68;;;;;;;-0.22;100.00;99581.28;6148483;23;20399;-80
2021/12/01 00:37:07;;;;;;;30.08;16.45;;;;;;;-0.32;100.00;99576.63;6125880;23;20013;-81
2021/12/01 00:39:32;;;;;;;27.33;15.90;;;;;;;-0.43;100.00;99580.59;6144002;23;20065;-82
2021/12/01 00:41:59;;;;;;;28.77;16.88;;;;;;;-0.46;100.00;99567.75;6144185;23;20017;-81
2021/12/01 00:44:25;;;;;;;22.85;15.32;;;;;;;-0.49;100.00;99562.72;6144367;23;20120;-80
2021/12/01 00:49:33;;;;;;;26.38;15.85;;;;;;;-0.55;100.00;99568.19;6142569;23;20249;-80
2021/12/01 00:51:59;;;;;;;26.17;14.73;;;;;;;-0.47;100.00;99568.66;6141111;23;20013;-80
2021/12/01 00:54:25;;;;;;;26.15;14.95;;;;;;;-0.43;100.00;99566.78;6129863;23;20006;-80
2021/12/01 00:56:50;;;;;;;26.63;14.00;;;;;;;-0.46;100.00;99572.09;6127660;23;20344;-80
2021/12/01 00:59:17;;;;;;;25.70;15.25;;;;;;;-0.49;100.00;99567.91;6127581;23;20014;-81
2021/12/01 01:01:43;;;;;;;24.35;15.38;;;;;;;-0.51;100.00;99569.72;6139478;23;20033;-80
2021/12/01 01:04:09;;;;;;;27.38;14.70;;;;;;;-0.53;100.00;99566.34;6138745;23;20065;-81
2021/12/01 01:06:35;;;;;;;22.85;14.02;;;;;;;-0.60;100.00;99558.97;6128738;23;20022;-81
2021/12/01 01:09:05;;;;;;;23.55;13.82;;;;;;;-0.56;100.00;99561.34;6127398;23;20013;-81
2021/12/01 01:17:00;;;;;;;21.20;13.13;;;;;;;-0.56;100.00;99540.59;6126534;23;20010;-81
2021/12/01 01:19:26;;;;;;;18.73;13.00;;;;;;;-0.63;100.00;99544.41;6126842;23;20022;-80
2021/12/01 01:21:52;;;;;;;22.02;13.25;;;;;;;-0.65;100.00;99543.66;6149640;23;20020;-80
2021/12/01 01:24:19;;;;;;;21.27;13.40;;;;;;;-0.66;100.00;99544.56;6126245;23;20002;-80
2021/12/01 01:26:48;;;;;;;17.90;13.68;;;;;;;-0.70;100.00;99531.78;6128176;23;20010;-81
2021/12/01 01:29:14;;;;;;;21.15;14.07;;;;;;;-0.74;100.00;99533.69;6126687;23;20005;-80
2021/12/01 01:31:39;;;;;;;21.27;14.65;;;;;;;-0.78;100.00;99539.09;6127109;23;20010;-80
2021/12/01 01:34:05;;;;;;;22.48;15.18;;;;;;;-0.84;100.00;99540.22;6126585;23;20042;-80
2021/12/01 01:36:31;;;;;;;24.88;14.38;;;;;;;-0.85;100.00;99544.56;6142433;23;20005;-80
2021/12/01 01:38:57;;;;;;;23.38;14.27;;;;;;;-0.88;100.00;99534.34;6152171;23;19994;-79
2021/12/01 01:41:23;;;;;;;20.33;13.80;;;;;;;-0.88;100.00;99530.91;6147701;23;20022;-80
2021/12/01 01:43:51;;;;;;;20.80;14.23;;;;;;;-0.89;100.00;99526.66;6169384;23;20006;-80
2021/12/01 01:46:18;;;;;;;22.95;14.68;;;;;;;-0.84;100.00;99527.28;6136583;23;20013;-80
2021/12/01 01:48:54;;;;;;;22.95;14.63;;;;;;;-0.82;100.00;99522.84;6128448;23;20001;-81
2021/12/01 01:51:23;;;;;;;23.52;14.80;;;;;;;-0.85;100.00;99525.59;6127828;23;20517;-81
2021/12/01 01:53:51;;;;;;;22.17;13.93;;;;;;;-0.85;100.00;99516.06;6123672;23;20392;-80
2021/12/01 01:56:17;;;;;;;22.40;13.10;;;;;;;-0.80;100.00;99515.00;6123363;23;20703;-81
2021/12/01 01:58:43;;;;;;;27.00;14.90;;;;;;;-0.76;100.00;99512.19;6124188;23;20097;-81
2021/12/01 02:01:15;;;;;;;24.20;13.32;;;;;;;-0.77;100.00;99513.13;6126174;23;20014;-80
2021/12/01 02:03:43;;;;;;;21.20;13.40;;;;;;;-0.77;100.00;99509.69;6126410;23;20013;-81
2021/12/01 02:06:10;;;;;;;19.70;14.05;;;;;;;-0.73;100.00;99506.88;6124113;23;20113;-80
2021/12/01 02:08:40;;;;;;;23.60;14.98;;;;;;;-0.71;100.00;99507.66;6125176;23;20125;-81
2021/12/01 02:11:11;;;;;;;24.13;14.20;;;;;;;-0.67;100.00;99495.38;6126005;23;20089;-80
2021/12/01 02:13:38;;;;;;;24.38;13.80;;;;;;;-0.71;100.00;99492.13;6126949;23;20061;-81
2021/12/01 02:16:04;;;;;;;23.25;13.88;;;;;;;-0.76;100.00;99494.06;6124149;23;20026;-80
2021/12/01 02:18:30;;;;;;;26.38;14.23;;;;;;;-0.81;100.00;99483.09;6124981;23;20490;-80
2021/12/01 02:21:11;;;;;;;23.65;13.65;;;;;;;-0.79;100.00;99485.59;6125695;23;20089;-80
2021/12/01 02:23:39;;;;;;;21.50;13.70;;;;;;;-0.87;100.00;99483.38;6125227;23;20297;-81
2021/12/01 02:26:06;;;;;;;21.42;13.57;;;;;;;-0.89;100.00;99480.88;6125834;23;20058;-80
2021/12/01 02:28:33;;;;;;;21.00;13.55;;;;;;;-0.96;100.00;99489.84;6127574;23;20009;-79
2021/12/01 02:31:00;;;;;;;19.52;13.18;;;;;;;-0.96;100.00;99478.63;6128257;23;20010;-80
2021/12/01 02:33:27;;;;;;;22.77;13.68;;;;;;;-1.01;100.00;99470.25;6125637;23;20041;-80
2021/12/01 02:35:52;;;;;;;30.35;13.75;;;;;;;-1.02;100.00;99468.56;6125858;23;20020;-80
2021/12/01 02:38:18;;;;;;;19.80;13.55;;;;;;;-1.01;100.00;99470.25;6125279;23;20029;-80
2021/12/01 02:40:45;;;;;;;23.27;13.35;;;;;;;-1.01;100.00;99467.66;6123023;23;20093;-79
2021/12/01 02:43:11;;;;;;;23.98;14.00;;;;;;;-0.99;100.00;99463.22;6147746;23;20006;-80
2021/12/01 02:45:39;;;;;;;21.08;13.38;;;;;;;-1.02;100.00;99458.22;6125350;23;20021;-80
2021/12/01 02:48:04;;;;;;;20.23;12.80;;;;;;;-0.99;100.00;99458.06;6124847;23;20017;-80
2021/12/01 02:50:30;;;;;;;18.27;13.18;;;;;;;-1.02;100.00;99453.03;6125035;23;20013;-80
2021/12/01 02:52:55;;;;;;;21.38;13.70;;;;;;;-1.04;100.00;99447.06;6126376;23;20021;-80
2021/12/01 02:55:21;;;;;;;36.17;15.73;;;;;;;-1.23;100.00;99444.50;6124565;23;20084;-80
2021/12/01 02:57:53;;;;;;;23.33;14.35;;;;;;;-1.26;100.00;99440.34;6123337;23;20032;-80
2021/12/01 03:00:22;;;;;;;21.30;13.35;;;;;;;-1.33;100.00;99432.91;6122871;23;20014;-80
2021/12/01 03:02:48;;;;;;;20.75;14.50;;;;;;;-1.31;100.00;99439.72;6124977;23;20459;-80
2021/12/01 03:05:16;;;;;;;21.60;13.27;;;;;;;-1.24;100.00;99432.50;6125046;23;20014;-80
2021/12/01 03:07:43;;;;;;;22.38;13.90;;;;;;;-1.19;100.00;99430.53;6125180;23;20090;-80
2021/12/01 03:10:10;;;;;;;22.02;14.00;;;;;;;-1.14;100.00;99417.38;6135710;23;20016;-80
2021/12/01 03:12:39;;;;;;;22.77;13.95;;;;;;;-1.15;100.00;99423.44;6131960;23;20419;-80
2021/12/01 03:15:08;;;;;;;22.42;13.52;;;;;;;-1.25;100.00;99426.47;6125002;23;20014;-81
2021/12/01 03:17:34;;;;;;;23.88;13.77;;;;;;;-1.31;100.00;99426.78;6125044;23;20022;-81
2021/12/01 03:20:00;;;;;;;28.05;14.82;;;;;;;-1.37;100.00;99418.44;6125183;23;20403;-80
2021/12/01 03:22:26;;;;;;;22.48;14.23;;;;;;;-1.37;100.00;99416.69;6124623;23;20005;-81
2021/12/01 03:24:54;;;;;;;23.20;14.77;;;;;;;-1.37;100.00;99411.53;6124821;23;20021;-82
2021/12/01 03:27:20;;;;;;;27.55;14.63;;;;;;;-1.31;100.00;99410.41;6122828;23;20064;-79
2021/12/01 03:29:46;;;;;;;28.42;15.52;;;;;;;-1.27;100.00;99407.59;6126176;23;20033;-81
2021/12/01 03:32:13;;;;;;;27.02;14.05;;;;;;;-1.23;100.00;99414.28;6125339;23;20010;-80
2021/12/01 03:34:40;;;;;;;22.40;13.93;;;;;;;-1.18;100.00;99406.31;6123619;23;20060;-80
2021/12/01 03:37:06;;;;;;;20.50;13.55;;;;;;;-1.23;100.00;99398.75;6122937;23;20406;-81
2021/12/01 03:39:32;;;;;;;24.50;15.10;;;;;;;-1.21;100.00;99403.03;6124222;23;20081;-80
2021/12/01 03:41:57;;;;;;;23.55;14.10;;;;;;;-1.29;100.00;99404.22;6124440;23;20020;-80
2021/12/01 03:44:23;;;;;;;21.60;13.23;;;;;;;-1.38;100.00;99409.84;6124010;23;20014;-79
2021/12/01 03:46:48;;;;;;;18.85;13.77;;;;;;;-1.35;100.00;99404.50;6124570;23;20394;-80
2021/12/01 03:49:14;;;;;;;21.02;13.07;;;;;;;-1.34;100.00;99393.25;6124583;23;20097;-80
2021/12/01 03:51:39;;;;;;;20.00;13.35;;;;;;;-1.27;100.00;99386.03;6124841;23;20031;-80
2021/12/01 03:54:05;;;;;;;21.38;13.77;;;;;;;-1.21;100.00;99395.25;6124747;23;20089;-80
2021/12/01 03:56:33;;;;;;;19.10;14.52;;;;;;;-1.23;100.00;99378.03;6123926;23;20014;-80
2021/12/01 03:58:59;;;;;;;19.08;13.55;;;;;;;-1.25;100.00;99377.28;6124937;23;20431;-80
2021/12/01 04:01:24;;;;;;;23.80;13.68;;;;;;;-1.33;100.00;99384.56;6124283;23;20016;-80
2021/12/01 04:03:50;;;;;;;17.50;12.93;;;;;;;-1.30;100.00;99381.84;6125367;23;20021;-79
2021/12/01 04:06:15;;;;;;;17.33;12.45;;;;;;;-1.31;100.00;99380.19;6124522;23;20346;-80
2021/12/01 04:08:41;;;;;;;20.70;13.00;;;;;;;-1.31;100.00;99375.00;6124090;23;20010;-81
2021/12/01 04:11:08;;;;;;;19.92;13.18;;;;;;;-1.32;100.00;99377.66;6125214;23;20459;-82
2021/12/01 04:13:33;;;;;;;18.77;12.75;;;;;;;-1.35;100.00;99373.44;6125426;23;20041;-81
2021/12/01 04:15:59;;;;;;;25.23;14.45;;;;;;;-1.35;100.00;99377.78;6124625;23;20041;-81
2021/12/01 04:18:25;;;;;;;19.15;13.68;;;;;;;-1.34;100.00;99375.13;6131439;23;20410;-81
2021/12/01 04:20:51;;;;;;;20.08;13.13;;;;;;;-1.40;100.00;99370.25;6124236;23;20006;-81
2021/12/01 04:23:17;;;;;;;26.48;13.98;;;;;;;-1.40;100.00;99365.06;6124364;23;20457;-81
2021/12/01 04:25:43;;;;;;;18.75;13.23;;;;;;;-1.44;100.00;99363.53;6124809;23;20069;-80
2021/12/01 04:28:09;;;;;;;19.98;13.13;;;;;;;-1.57;100.00;99362.44;6124841;23;20017;-81
2021/12/01 04:30:34;;;;;;;20.35;13.18;;;;;;;-1.64;100.00;99363.63;6124968;23;20014;-81
2021/12/01 04:33:01;;;;;;;19.13;13.40;;;;;;;-1.71;100.00;99360.47;6124975;23;20466;-80
2021/12/01 04:35:28;;;;;;;22.35;13.82;;;;;;;-1.69;100.00;99357.84;6124867;23;20030;-80
2021/12/01 04:37:56;;;;;;;18.58;12.60;;;;;;;-1.65;100.00;99354.22;6123002;23;20365;-81
2021/12/01 04:40:24;;;;;;;21.92;13.10;;;;;;;-1.63;100.00;99352.38;6124807;23;20010;-79
2021/12/01 04:42:51;;;;;;;20.30;13.13;;;;;;;-1.67;100.00;99341.34;6126910;23;20391;-80
2021/12/01 04:45:19;;;;;;;19.52;12.65;;;;;;;-1.76;100.00;99340.91;6126591;23;20093;-81
2021/12/01 04:47:48;;;;;;;18.30;12.95;;;;;;;-1.79;100.00;99348.81;6127209;23;20018;-81
2021/12/01 04:50:16;;;;;;;20.08;12.40;;;;;;;-1.71;100.00;99344.16;6129427;23;20006;-81
2021/12/01 04:52:44;;;;;;;22.08;12.32;;;;;;;-1.64;100.00;99335.16;6133007;23;20066;-80
2021/12/01 04:55:10;;;;;;;16.80;12.52;;;;;;;-1.60;100.00;99331.53;6139794;23;20032;-82
2021/12/01 04:57:41;;;;;;;17.42;12.32;;;;;;;-1.60;100.00;99326.38;6146407;23;20021;-80
2021/12/01 05:00:07;;;;;;;;;;;;;;;-1.60;100.00;99326.38;6147617;23;20045;-80
2021/12/01 05:02:33;;;;;;;17.67;11.88;;;;;;;-1.55;100.00;99327.00;6137518;23;20352;-81
2021/12/01 05:04:58;;;;;;;19.30;13.00;;;;;;;-1.56;100.00;99327.06;6138402;23;20104;-81
2021/12/01 05:07:24;;;;;;;15.70;11.57;;;;;;;-1.56;100.00;99322.72;6130511;23;20014;-80
2021/12/01 05:09:52;;;;;;;15.57;11.60;;;;;;;-1.56;100.00;99317.53;6131781;23;20010;-81
2021/12/01 05:12:18;;;;;;;15.90;12.57;;;;;;;-1.57;100.00;99310.69;6133599;23;20029;-81
2021/12/01 05:14:43;;;;;;;16.38;12.85;;;;;;;-1.59;100.00;99312.50;6140223;23;20014;-81
2021/12/01 05:17:08;;;;;;;16.98;12.77;;;;;;;-1.79;100.00;99312.63;6145669;23;20075;-80
2021/12/01 05:19:35;;;;;;;21.35;12.82;;;;;;;-1.79;100.00;99310.03;6141505;23;20112;-81
2021/12/01 05:22:02;;;;;;;17.42;12.32;;;;;;;-1.75;100.00;99316.72;6151280;23;20078;-80
2021/12/01 05:24:28;;;;;;;18.50;13.80;;;;;;;-1.75;100.00;99311.56;6151427;23;20010;-81
2021/12/01 05:26:54;;;;;;;22.17;13.45;;;;;;;-1.78;100.00;99316.88;6144482;23;20010;-80
2021/12/01 05:29:21;;;;;;;15.73;12.32;;;;;;;-1.74;100.00;99302.88;6149015;23;20009;-80
2021/12/01 05:31:48;;;;;;;18.55;12.10;;;;;;;-1.73;100.00;99312.34;6147785;23;20101;-80
2021/12/01 05:34:13;;;;;;;20.63;12.30;;;;;;;-1.71;100.00;99313.09;6128605;23;20002;-80
2021/12/01 05:36:39;;;;;;;20.23;12.88;;;;;;;-1.70;100.00;99309.59;6128445;23;20064;-81
2021/12/01 05:39:04;;;;;;;28.00;13.32;;;;;;;-1.71;100.00;99313.09;6128011;23;20018;-80
2021/12/01 05:41:30;;;;;;;18.50;11.98;;;;;;;-1.82;100.00;99304.97;6127215;23;20796;-80
2021/12/01 05:43:55;;;;;;;19.92;11.45;;;;;;;-1.92;100.00;99307.16;6127143;23;20021;-80
2021/12/01 05:46:20;;;;;;;22.38;13.70;;;;;;;-1.96;100.00;99313.41;6126332;23;20420;-78
2021/12/01 05:48:48;;;;;;;18.33;12.95;;;;;;;-1.98;100.00;99314.38;6126402;23;20021;-78
2021/12/01 05:51:14;;;;;;;19.80;13.32;;;;;;;-2.00;100.00;99316.22;6125794;23;20014;-79
2021/12/01 05:53:39;;;;;;;18.80;13.23;;;;;;;-1.97;100.00;99321.22;6125970;23;20088;-78
2021/12/01 05:56:05;;;;;;;19.48;12.77;;;;;;;-1.96;100.00;99323.75;6127543;23;20390;-79
2021/12/01 05:58:30;;;;;;;18.80;13.40;;;;;;;-1.95;100.00;99319.41;6155627;23;20013;-79
2021/12/01 06:00:56;;;;;;;17.52;13.23;;;;;;;-1.99;100.00;99317.84;6141042;23;20006;-78
2021/12/01 06:03:22;;;;;;;21.40;13.90;;;;;;;-1.95;100.00;99316.84;6141691;23;20006;-80
2021/12/01 06:05:47;;;;;;;18.17;12.25;;;;;;;-1.90;100.00;99312.28;6138925;23;20010;-79
2021/12/01 06:08:13;;;;;;;17.42;12.00;;;;;;;-1.86;100.00;99314.66;6137549;23;20010;-80
2021/12/01 06:10:40;;;;;;;16.50;12.30;;;;;;;-1.81;100.00;99311.84;6134263;23;20006;-81
2021/12/01 06:13:06;;;;;;;15.73;10.70;;;;;;;-1.74;100.00;99315.81;6125970;23;20410;-80
2021/12/01 06:15:32;;;;;;;18.60;12.13;;;;;;;-1.71;100.00;99313.91;6124639;23;20064;-80
2021/12/01 06:17:58;;;;;;;18.25;12.23;;;;;;;-1.77;100.00;99309.03;6127120;23;20041;-81
2021/12/01 06:20:24;;;;;;;17.63;13.13;;;;;;;-1.78;100.00;99314.31;6122980;23;20018;-82
2021/12/01 06:22:52;;;;;;;24.88;13.85;;;;;;;-1.78;100.00;99306.53;6126309;23;20096;-80
2021/12/01 06:25:18;;;;;;;17.85;12.05;;;;;;;-1.73;100.00;99309.75;6132009;23;20077;-79
2021/12/01 06:27:44;;;;;;;16.40;11.98;;;;;;;-1.68;100.00;99318.13;6140251;23;20020;-80
2021/12/01 06:30:11;;;;;;;18.65;12.73;;;;;;;-1.69;100.00;99306.09;6131348;23;20085;-79
2021/12/01 06:32:37;;;;;;;19.25;13.48;;;;;;;-1.75;100.00;99303.78;6127408;23;20006;-78
2021/12/01 06:35:04;;;;;;;19.83;14.23;;;;;;;-1.75;100.00;99306.38;6124686;23;20112;-78
2021/12/01 06:37:30;;;;;;;20.92;13.00;;;;;;;-1.70;100.00;99300.06;6125484;23;20017;-79
2021/12/01 06:39:56;;;;;;;16.38;12.70;;;;;;;-1.66;100.00;99296.47;6123308;23;20126;-78
2021/12/01 06:42:21;;;;;;;19.67;12.85;;;;;;;-1.60;100.00;99305.69;6128668;23;20014;-84
2021/12/01 06:44:47;;;;;;;18.33;13.10;;;;;;;-1.55;100.00;99295.94;6126874;23;20017;-78
2021/12/01 06:47:13;;;;;;;20.15;13.85;;;;;;;-1.55;100.00;99303.69;6127843;23;20053;-78
2021/12/01 06:49:38;;;;;;;19.00;12.95;;;;;;;-1.53;100.00;99301.03;6105534;23;20107;-80
2021/12/01 06:52:04;;;;;;;18.27;12.63;;;;;;;-1.59;100.00;99302.16;6134370;23;20434;-77
2021/12/01 06:54:30;;;;;;;17.60;13.10;;;;;;;-1.60;100.00;99302.25;6131134;23;20013;-79
2021/12/01 06:56:55;;;;;;;20.58;12.73;;;;;;;-1.58;100.00;99314.19;6131609;23;20010;-76
2021/12/01 06:59:24;;;;;;;21.30;13.45;;;;;;;-1.56;100.00;99311.53;6153967;23;20017;-75
2021/12/01 07:01:50;;;;;;;19.77;13.40;;;;;;;-1.53;100.00;99301.84;6126798;23;20034;-77
2021/12/01 07:04:16;;;;;;;19.33;13.35;;;;;;;-1.55;100.00;99313.22;6123883;23;20029;-77
2021/12/01 07:06:41;;;;;;;19.05;12.77;;;;;;;-1.55;100.00;99318.38;6124259;23;20095;-77
2021/12/01 07:09:07;;;;;;;24.20;13.73;;;;;;;-1.53;100.00;99327.72;6124103;23;20017;-77
2021/12/01 07:11:32;;;;;;;19.13;13.13;;;;;;;-1.50;100.00;99331.94;6123828;23;20372;-76
2021/12/01 07:13:58;;;;;;;18.15;13.38;;;;;;;-1.48;100.00;99330.13;6146972;23;20025;-77
2021/12/01 07:16:24;;;;;;;19.67;14.40;;;;;;;-1.52;100.00;99326.81;6123961;23;20056;-76
2021/12/01 07:18:49;;;;;;;23.30;14.10;;;;;;;-1.62;100.00;99325.59;6124638;23;20088;-76
2021/12/01 07:21:15;;;;;;;22.58;14.50;;;;;;;-1.63;100.00;99316.16;6123905;23;20307;-77
2021/12/01 07:23:41;;;;;;;21.45;13.55;;;;;;;-1.70;100.00;99319.94;6124258;23;20451;-77
2021/12/01 07:26:07;;;;;;;23.05;14.95;;;;;;;-1.60;100.00;99328.97;6124270;23;20335;-76
2021/12/01 07:28:32;;;;;;;18.17;13.65;;;;;;;-1.49;100.00;99329.28;6123632;23;20006;-76
2021/12/01 07:30:59;;;;;;;23.42;13.52;;;;;;;-1.39;100.00;99333.09;6122756;23;20041;-79
2021/12/01 07:33:25;;;;;;;21.52;14.27;;;;;;;-1.29;100.00;99328.31;6123644;23;20068;-77
2021/12/01 07:35:51;;;;;;;20.30;13.98;;;;;;;-1.20;100.00;99321.84;6124486;23;20018;-78
2021/12/01 07:38:16;;;;;;;20.77;13.70;;;;;;;-1.11;100.00;99318.81;6123288;23;20006;-77
2021/12/01 07:40:42;;;;;;;21.58;14.40;;;;;;;-1.01;100.00;99325.22;6124166;23;20021;-78
2021/12/01 07:43:08;;;;;;;22.02;14.15;;;;;;;-1.04;100.00;99330.53;6124389;23;20009;-76
2021/12/01 07:45:34;;;;;;;22.48;15.30;;;;;;;-1.09;100.00;99330.78;6140144;23;20018;-77
2021/12/01 07:48:00;;;;;;;21.83;14.02;;;;;;;-1.01;100.00;99336.44;6130543;23;20010;-77
2021/12/01 07:50:25;;;;;;;24.05;15.02;;;;;;;-0.94;100.00;99344.69;6124222;23;20006;-77
2021/12/01 07:52:51;;;;;;;19.23;13.32;;;;;;;-0.82;100.00;99341.50;6147404;23;20006;-78
2021/12/01 07:55:18;;;;;;;20.45;13.60;;;;;;;-0.71;100.00;99343.59;6123494;23;20022;-77
2021/12/01 07:57:45;;;;;;;20.67;13.90;;;;;;;-0.61;100.00;99335.25;6123837;23;20014;-77
2021/12/01 08:00:11;;;;;;;23.27;13.98;;;;;;;-0.50;100.00;99340.72;6123947;23;20029;-77
2021/12/01 08:02:36;;;;;;;20.38;13.35;;;;;;;-0.43;100.00;99334.31;6124146;23;20010;-77
2021/12/01 08:05:06;;;;;;;21.70;14.23;;;;;;;-0.34;100.00;99334.72;6124455;23;20014;-77
2021/12/01 08:07:35;;;;;;;25.20;14.70;;;;;;;-0.28;100.00;99342.19;6123662;23;20122;-78
2021/12/01 08:10:01;;;;;;;21.60;15.82;;;;;;;-0.18;100.00;99335.63;6124061;23;20044;-77
2021/12/01 08:12:27;;;;;;;21.17;13.27;;;;;;;-0.08;100.00;99324.69;6123703;23;20060;-76
2021/12/01 08:14:52;;;;;;;21.77;13.88;;;;;;;0.03;100.00;99333.63;6124154;23;20010;-76
2021/12/01 08:17:18;;;;;;;23.02;14.23;;;;;;;0.08;100.00;99329.88;6124040;23;20472;-76
2021/12/01 08:19:43;;;;;;;20.95;13.25;;;;;;;0.13;100.00;99317.47;6124269;23;20014;-78
2021/12/01 08:22:09;;;;;;;20.83;14.18;;;;;;;0.25;100.00;99322.00;6124664;23;20020;-77
2021/12/01 08:24:36;;;;;;;26.17;14.85;;;;;;;0.31;100.00;99313.88;6123788;23;20018;-76
2021/12/01 08:27:02;;;;;;;20.83;14.02;;;;;;;0.40;100.00;99310.78;6124433;23;20006;-77
2021/12/01 08:29:27;;;;;;;27.80;15.80;;;;;;;0.48;100.00;99322.47;6123609;23;20021;-77
2021/12/01 08:31:53;;;;;;;23.58;14.13;;;;;;;0.53;100.00;99312.72;6124324;23;20343;-76
2021/12/01 08:34:18;;;;;;;23.33;14.77;;;;;;;0.59;100.00;99317.56;6123725;23;20017;-78
2021/12/01 08:36:46;;;;;;;26.88;14.77;;;;;;;0.64;100.00;99329.34;6124162;23;20014;-77
2021/12/01 08:39:12;;;;;;;21.63;14.63;;;;;;;0.71;100.00;99329.81;6145993;23;20097;-78
2021/12/01 08:41:38;;;;;;;21.52;14.75;;;;;;;0.78;100.00;99325.97;6124136;23;20014;-76
2021/12/01 08:44:04;;;;;;;18.30;13.50;;;;;;;0.83;100.00;99334.31;6124068;23;20010;-78
2021/12/01 08:46:29;;;;;;;21.48;14.60;;;;;;;0.85;100.00;99336.84;6123772;23;20045;-77
2021/12/01 08:48:56;;;;;;;21.60;14.55;;;;;;;0.94;100.00;99331.13;6124756;23;20479;-77
2021/12/01 08:51:22;;;;;;;23.27;14.73;;;;;;;0.99;100.00;99345.53;6132984;23;20010;-77
2021/12/01 08:53:47;;;;;;;26.00;15.07;;;;;;;1.04;100.00;99340.91;6162805;23;20037;-77
2021/12/01 08:56:13;;;;;;;25.60;16.08;;;;;;;1.05;100.00;99334.78;6144522;23;20017;-79
2021/12/01 08:58:40;;;;;;;23.92;16.42;;;;;;;0.97;100.00;99341.34;6146766;23;20010;-78
2021/12/01 09:01:30;;;;;;;25.23;15.93;;;;;;;0.98;100.00;99332.63;6144618;23;20105;-77
2021/12/01 09:03:56;;;;;;;29.58;15.70;;;;;;;1.02;100.00;99334.94;6144033;23;20010;-76
2021/12/01 09:06:21;;;;;;;31.58;17.10;;;;;;;1.07;100.00;99332.91;6136730;23;20012;-75
2021/12/01 09:08:47;;;;;;;26.98;17.42;;;;;;;1.13;100.00;99340.38;6126974;23;20021;-77
2021/12/01 09:11:12;;;;;;;29.00;15.65;;;;;;;1.11;100.00;99329.25;6126555;23;20427;-77
2021/12/01 09:13:38;;;;;;;32.33;15.52;;;;;;;1.13;100.00;99337.75;6125340;23;20479;-78
2021/12/01 09:16:04;;;;;;;22.20;14.60;;;;;;;1.21;100.00;99340.75;6125132;23;20014;-78
2021/12/01 09:18:30;;;;;;;29.20;17.17;;;;;;;1.29;100.00;99334.28;6124353;23;20084;-78
2021/12/01 09:20:58;;;;;;;27.95;16.38;;;;;;;1.33;100.00;99333.19;6124900;23;20042;-77
2021/12/01 09:23:25;;;;;;;25.33;15.73;;;;;;;1.39;100.00;99343.22;6123855;23;20014;-78
2021/12/01 09:25:50;;;;;;;30.08;17.25;;;;;;;1.45;100.00;99338.50;6124344;23;20018;-79
2021/12/01 09:28:20;;;;;;;31.10;18.65;;;;;;;1.48;100.00;99343.50;6127700;23;20356;-77
2021/12/01 09:30:46;;;;;;;33.65;18.77;;;;;;;1.55;100.00;99338.75;6131590;23;20014;-77
2021/12/01 09:33:13;;;;;;;28.40;17.02;;;;;;;1.63;100.00;99331.34;6128129;23;20057;-76
2021/12/01 09:35:39;;;;;;;24.75;16.48;;;;;;;1.71;100.00;99331.72;6123215;23;20323;-77
2021/12/01 09:38:05;;;;;;;26.23;17.13;;;;;;;1.81;100.00;99325.03;6124234;23;20014;-78
2021/12/01 09:40:31;;;;;;;25.30;16.33;;;;;;;1.88;100.00;99330.72;6122740;23;20406;-77
2021/12/01 09:42:56;;;;;;;25.88;17.10;;;;;;;1.92;100.00;99325.22;6125688;23;20002;-78
2021/12/01 09:45:24;;;;;;;26.25;17.90;;;;;;;1.97;100.00;99317.97;6123183;23;20018;-77
2021/12/01 09:47:50;;;;;;;30.52;19.13;;;;;;;2.04;100.00;99311.44;6099440;23;20029;-78
2021/12/01 09:50:17;;;;;;;29.63;18.65;;;;;;;2.15;100.00;99312.53;6124644;23;20037;-78
2021/12/01 09:52:44;;;;;;;36.20;19.10;;;;;;;2.23;100.00;99305.09;6125171;23;20020;-78
2021/12/01 09:55:12;;;;;;;24.33;17.17;;;;;;;2.34;100.00;99298.28;6124445;23;20033;-78
2021/12/01 09:57:38;;;;;;;26.65;17.58;;;;;;;2.43;100.00;99299.44;6125912;23;20009;-77
2021/12/01 10:00:05;;;;;;;32.45;17.95;;;;;;;2.51;100.00;99293.75;6126031;23;20033;-78
2021/12/01 10:02:30;;;;;;;27.52;17.33;;;;;;;2.56;100.00;99283.88;6125109;23;20009;-76
2021/12/01 10:04:56;;;;;;;31.30;18.77;;;;;;;2.60;100.00;99287.94;6123212;23;20005;-77
2021/12/01 10:07:24;;;;;;;27.73;17.95;;;;;;;2.68;100.00;99286.53;6124590;23;20081;-77
2021/12/01 10:09:53;;;;;;;26.75;15.85;;;;;;;2.75;100.00;99282.59;6124351;23;20010;-78
2021/12/01 10:12:19;;;;;;;24.58;16.58;;;;;;;2.81;100.00;99276.97;6124628;23;20427;-78
2021/12/01 10:14:47;;;;;;;25.35;15.85;;;;;;;2.86;100.00;99279.28;6125148;23;20025;-78
2021/12/01 10:17:14;;;;;;;27.65;15.98;;;;;;;2.92;99.68;99283.25;6124691;23;20014;-78
2021/12/01 10:19:39;;;;;;;24.67;17.50;;;;;;;2.94;98.77;99278.78;6125385;23;20066;-77
2021/12/01 10:22:11;;;;;;;25.73;16.35;;;;;;;2.95;96.77;99272.59;6124744;23;20105;-77
2021/12/01 10:24:40;;;;;;;31.88;17.38;;;;;;;3.00;97.23;99271.38;6124943;23;20097;-79
2021/12/01 10:27:13;;;;;;;24.25;16.38;;;;;;;3.06;97.71;99260.56;6125339;23;20006;-78
2021/12/01 10:29:45;;;;;;;23.15;14.73;;;;;;;3.14;96.46;99265.22;6125573;23;20079;-77
2021/12/01 10:32:11;;;;;;;23.45;14.80;;;;;;;3.20;95.93;99262.22;6125014;23;20144;-77
2021/12/01 10:34:52;;;;;;;20.98;14.15;;;;;;;3.27;93.79;99242.59;6125141;23;20404;-77
2021/12/01 10:37:25;;;;;;;21.88;14.90;;;;;;;3.37;91.78;99242.81;6124169;23;20021;-78
2021/12/01 10:40:08;;;;;;;24.70;15.85;;;;;;;3.44;90.24;99244.91;6123683;23;20025;-78
2021/12/01 10:42:52;;;;;;;23.13;16.48;;;;;;;3.52;90.63;99250.44;6124494;23;20408;-77
2021/12/01 10:45:21;;;;;;;24.23;15.63;;;;;;;3.60;90.78;99240.28;6124172;23;20049;-79
2021/12/01 10:47:47;;;;;;;24.23;15.10;;;;;;;3.66;90.42;99237.25;6124635;23;20133;-78
2021/12/01 10:50:16;;;;;;;20.00;13.80;;;;;;;3.71;90.70;99237.75;6124691;23;20041;-79
2021/12/01 10:52:45;;;;;;;19.17;14.10;;;;;;;3.76;90.14;99244.44;6124515;23;20085;-77
2021/12/01 10:55:16;;;;;;;15.43;12.05;;;;;;;3.78;89.48;99232.09;6124115;23;20006;-78
2021/12/01 10:57:54;;;;;;;20.77;13.77;;;;;;;3.83;89.24;99237.84;6124312;23;20014;-77
2021/12/01 11:00:26;;;;;;;15.57;12.23;;;;;;;3.86;89.01;99221.97;6124950;23;20340;-77
2021/12/01 11:02:53;;;;;;;20.67;13.90;;;;;;;3.91;89.05;99227.69;6124825;23;20010;-78
2021/12/01 11:05:36;;;;;;;15.63;12.00;;;;;;;3.99;88.46;99201.88;6124386;23;20020;-78
2021/12/01 11:08:26;;;;;;;14.30;10.68;;;;;;;4.10;87.42;99184.50;6124568;23;20006;-78
2021/12/01 11:11:11;;;;;;;11.40;9.93;;;;;;;4.27;86.77;99165.00;6124426;23;20407;-77
2021/12/01 11:13:41;;;;;;;16.35;9.60;;;;;;;4.42;86.06;99165.63;6124498;23;20014;-78
2021/12/01 11:16:10;;;;;;;14.00;10.27;;;;;;;4.56;84.51;99167.22;6123642;23;20042;-78
2021/12/01 11:18:39;;;;;;;14.65;10.35;;;;;;;4.60;84.23;99152.97;6124402;23;20679;-76